sensor_id;sensor_type;location;lat;lon;timestamp;pressure;altitude;pressure_sealevel;temperature;humidity
84760;BME280;74983;51.084;11.086;2024-02-26T00:01:50;98575.19;;;0.45;92.47
84760;BME280;74983;51.084;11.086;2024-02-26T00:04:15;98571.63;;;0.47;92.38
84760;BME280;74983;51.084;11.086;2024-02-26T00:06:40;98574.91;;;0.49;92.83
84760;BME280;74983;51.084;11.086;2024-02-26T00:09:06;98569.03;;;0.32;92.74
84760;BME280;74983;51.084;11.086;2024-02-26T00:11:32;98564.38;;;0.40;93.35
84760;BME280;74983;51.084;11.086;2024-02-26T00:13:57;98562.13;;;0.34;92.82
84760;BME280;74983;51.084;11.086;2024-02-26T00:16:23;98571.13;;;0.41;92.80
84760;BME280;74983;51.084;11.086;2024-02-26T00:18:48;98570.47;;;0.37;93.34
84760;BME280;74983;51.084;11.086;2024-02-26T00:21:14;98565.59;;;0.48;93.49
84760;BME280;74983;51.084;11.086;2024-02-26T00:23:39;98568.06;;;0.50;92.88
84760;BME280;74983;51.084;11.086;2024-02-26T00:26:04;98556.59;;;0.41;93.31
84760;BME280;74983;51.084;11.086;2024-02-26T00:28:29;98554.53;;;0.48;93.73
84760;BME280;74983;51.084;11.086;2024-02-26T00:30:55;98548.75;;;0.44;93.66
84760;BME280;74983;51.084;11.086;2024-02-26T00:33:21;98544.38;;;0.46;93.45
84760;BME280;74983;51.084;11.086;2024-02-26T00:35:47;98539.44;;;0.43;92.21
84760;BME280;74983;51.084;11.086;2024-02-26T00:38:12;98534.44;;;0.40;92.39
84760;BME280;74983;51.084;11.086;2024-02-26T00:40:37;98532.91;;;0.38;92.07
84760;BME280;74983;51.084;11.086;2024-02-26T00:43:03;98524.06;;;0.43;92.82
84760;BME280;74983;51.084;11.086;2024-02-26T00:45:28;98520.94;;;0.38;92.34
84760;BME280;74983;51.084;11.086;2024-02-26T00:47:53;98525.38;;;0.35;91.08
84760;BME280;74983;51.084;11.086;2024-02-26T00:50:19;98522.56;;;0.39;91.16
84760;BME280;74983;51.084;11.086;2024-02-26T00:52:44;98515.06;;;0.36;91.52
84760;BME280;74983;51.084;11.086;2024-02-26T00:55:09;98520.41;;;0.32;91.42
84760;BME280;74983;51.084;11.086;2024-02-26T00:57:35;98520.75;;;0.26;91.51
84760;BME280;74983;51.084;11.086;2024-02-26T01:00:00;98520.66;;;0.27;93.02
84760;BME280;74983;51.084;11.086;2024-02-26T01:02:26;98516.53;;;0.25;93.14
84760;BME280;74983;51.084;11.086;2024-02-26T01:04:51;98522.47;;;0.25;91.94
84760;BME280;74983;51.084;11.086;2024-02-26T01:07:16;98532.16;;;0.20;91.91
84760;BME280;74983;51.084;11.086;2024-02-26T01:09:42;98530.50;;;0.19;92.32
84760;BME280;74983;51.084;11.086;2024-02-26T01:12:07;98537.91;;;0.08;91.00
84760;BME280;74983;51.084;11.086;2024-02-26T01:14:33;98539.38;;;-0.04;90.98
84760;BME280;74983;51.084;11.086;2024-02-26T01:16:58;98533.75;;;-0.10;90.44
84760;BME280;74983;51.084;11.086;2024-02-26T01:19:23;98532.16;;;-0.28;92.02
84760;BME280;74983;51.084;11.086;2024-02-26T01:21:49;98529.34;;;-0.24;92.50
84760;BME280;74983;51.084;11.086;2024-02-26T01:24:14;98528.28;;;-0.20;93.02
84760;BME280;74983;51.084;11.086;2024-02-26T01:26:40;98531.34;;;-0.13;93.06
84760;BME280;74983;51.084;11.086;2024-02-26T01:29:05;98529.22;;;-0.05;92.60
84760;BME280;74983;51.084;11.086;2024-02-26T01:31:31;98518.97;;;-0.05;91.85
84760;BME280;74983;51.084;11.086;2024-02-26T01:33:56;98512.22;;;-0.06;91.96
84760;BME280;74983;51.084;11.086;2024-02-26T01:36:21;98517.91;;;-0.01;92.00
84760;BME280;74983;51.084;11.086;2024-02-26T01:38:46;98521.47;;;-0.04;91.90
84760;BME280;74983;51.084;11.086;2024-02-26T01:41:13;98522.72;;;-0.11;91.21
84760;BME280;74983;51.084;11.086;2024-02-26T01:43:39;98517.06;;;-0.17;92.02
84760;BME280;74983;51.084;11.086;2024-02-26T01:46:04;98519.88;;;-0.22;92.23
84760;BME280;74983;51.084;11.086;2024-02-26T01:48:30;98513.53;;;-0.15;93.20
84760;BME280;74983;51.084;11.086;2024-02-26T01:50:55;98525.00;;;-0.06;91.59
84760;BME280;74983;51.084;11.086;2024-02-26T01:53:20;98515.03;;;-0.11;92.95
84760;BME280;74983;51.084;11.086;2024-02-26T01:55:46;98507.19;;;-0.08;92.12
84760;BME280;74983;51.084;11.086;2024-02-26T01:58:11;98517.34;;;-0.06;93.35
84760;BME280;74983;51.084;11.086;2024-02-26T02:00:37;98524.84;;;-0.03;92.00
84760;BME280;74983;51.084;11.086;2024-02-26T02:03:04;98519.06;;;-0.07;92.42
84760;BME280;74983;51.084;11.086;2024-02-26T02:05:30;98526.81;;;-0.08;91.98
84760;BME280;74983;51.084;11.086;2024-02-26T02:07:57;98521.47;;;-0.04;92.08
84760;BME280;74983;51.084;11.086;2024-02-26T02:10:22;98528.66;;;0.06;91.19
84760;BME280;74983;51.084;11.086;2024-02-26T02:12:50;98521.72;;;0.08;91.74
84760;BME280;74983;51.084;11.086;2024-02-26T02:15:15;98523.06;;;0.15;92.49
84760;BME280;74983;51.084;11.086;2024-02-26T02:17:40;98517.34;;;0.10;91.78
84760;BME280;74983;51.084;11.086;2024-02-26T02:20:10;98527.69;;;0.08;91.28
84760;BME280;74983;51.084;11.086;2024-02-26T02:22:40;98528.06;;;0.00;91.56
84760;BME280;74983;51.084;11.086;2024-02-26T02:25:05;98540.78;;;0.02;91.75
84760;BME280;74983;51.084;11.086;2024-02-26T02:27:30;98531.53;;;-0.01;91.85
84760;BME280;74983;51.084;11.086;2024-02-26T02:29:56;98527.41;;;-0.03;92.15
84760;BME280;74983;51.084;11.086;2024-02-26T02:32:21;98536.16;;;-0.07;91.63
84760;BME280;74983;51.084;11.086;2024-02-26T02:34:47;98534.50;;;-0.08;92.81
84760;BME280;74983;51.084;11.086;2024-02-26T02:37:12;98539.44;;;-0.05;92.59
84760;BME280;74983;51.084;11.086;2024-02-26T02:39:37;98532.22;;;0.03;92.61
84760;BME280;74983;51.084;11.086;2024-02-26T02:42:03;98538.22;;;0.02;93.27
84760;BME280;74983;51.084;11.086;2024-02-26T02:44:28;98535.84;;;0.15;94.07
84760;BME280;74983;51.084;11.086;2024-02-26T02:46:53;98534.69;;;0.20;93.02
84760;BME280;74983;51.084;11.086;2024-02-26T02:49:19;98536.69;;;0.15;93.13
84760;BME280;74983;51.084;11.086;2024-02-26T02:51:44;98539.31;;;0.14;93.42
84760;BME280;74983;51.084;11.086;2024-02-26T02:54:09;98537.44;;;0.17;94.16
84760;BME280;74983;51.084;11.086;2024-02-26T02:56:35;98533.78;;;0.21;94.46
84760;BME280;74983;51.084;11.086;2024-02-26T02:59:01;98535.44;;;0.22;93.74
84760;BME280;74983;51.084;11.086;2024-02-26T03:01:26;98528.66;;;0.21;93.32
84760;BME280;74983;51.084;11.086;2024-02-26T03:03:51;98528.00;;;0.18;91.87
84760;BME280;74983;51.084;11.086;2024-02-26T03:06:17;98528.25;;;0.13;91.91
84760;BME280;74983;51.084;11.086;2024-02-26T03:08:42;98526.53;;;0.14;93.14
84760;BME280;74983;51.084;11.086;2024-02-26T03:11:07;98528.09;;;0.16;93.44
84760;BME280;74983;51.084;11.086;2024-02-26T03:13:33;98539.06;;;0.18;93.01
84760;BME280;74983;51.084;11.086;2024-02-26T03:15:58;98538.91;;;0.21;92.77
84760;BME280;74983;51.084;11.086;2024-02-26T03:18:23;98540.88;;;0.16;93.48
84760;BME280;74983;51.084;11.086;2024-02-26T03:20:49;98540.75;;;0.19;93.22
84760;BME280;74983;51.084;11.086;2024-02-26T03:23:14;98539.91;;;0.19;92.68
84760;BME280;74983;51.084;11.086;2024-02-26T03:25:42;98539.25;;;0.15;93.17
84760;BME280;74983;51.084;11.086;2024-02-26T03:28:08;98547.66;;;0.17;93.12
84760;BME280;74983;51.084;11.086;2024-02-26T03:30:33;98543.69;;;0.12;93.28
84760;BME280;74983;51.084;11.086;2024-02-26T03:32:58;98555.66;;;0.11;92.85
84760;BME280;74983;51.084;11.086;2024-02-26T03:35:23;98552.69;;;0.03;93.38
84760;BME280;74983;51.084;11.086;2024-02-26T03:37:49;98550.59;;;-0.06;93.27
84760;BME280;74983;51.084;11.086;2024-02-26T03:40:16;98551.72;;;-0.12;92.49
84760;BME280;74983;51.084;11.086;2024-02-26T03:42:43;98554.13;;;-0.09;92.79
84760;BME280;74983;51.084;11.086;2024-02-26T03:45:09;98551.25;;;-0.03;94.59
84760;BME280;74983;51.084;11.086;2024-02-26T03:47:34;98553.19;;;0.25;95.96
84760;BME280;74983;51.084;11.086;2024-02-26T03:49:59;98544.47;;;0.29;96.03
84760;BME280;74983;51.084;11.086;2024-02-26T03:52:25;98544.78;;;0.39;95.09
84760;BME280;74983;51.084;11.086;2024-02-26T03:54:50;98546.66;;;0.35;94.76
84760;BME280;74983;51.084;11.086;2024-02-26T03:57:15;98545.50;;;0.25;93.97
84760;BME280;74983;51.084;11.086;2024-02-26T03:59:41;98536.91;;;0.11;93.15
84760;BME280;74983;51.084;11.086;2024-02-26T04:02:06;98538.22;;;0.02;93.12
84760;BME280;74983;51.084;11.086;2024-02-26T04:04:34;98543.25;;;0.03;94.20
84760;BME280;74983;51.084;11.086;2024-02-26T04:06:59;98532.44;;;0.14;94.96
84760;BME280;74983;51.084;11.086;2024-02-26T04:09:24;98542.69;;;0.14;94.56
84760;BME280;74983;51.084;11.086;2024-02-26T04:11:49;98545.75;;;0.05;93.77
84760;BME280;74983;51.084;11.086;2024-02-26T04:14:15;98550.44;;;-0.03;93.23
84760;BME280;74983;51.084;11.086;2024-02-26T04:16:40;98545.47;;;-0.06;94.08
84760;BME280;74983;51.084;11.086;2024-02-26T04:19:05;98543.78;;;-0.23;94.09
84760;BME280;74983;51.084;11.086;2024-02-26T04:21:31;98543.84;;;-0.24;94.10
84760;BME280;74983;51.084;11.086;2024-02-26T04:23:57;98539.81;;;-0.28;94.04
84760;BME280;74983;51.084;11.086;2024-02-26T04:26:25;98544.03;;;-0.27;92.70
84760;BME280;74983;51.084;11.086;2024-02-26T04:28:51;98544.78;;;-0.25;92.84
84760;BME280;74983;51.084;11.086;2024-02-26T04:31:16;98555.09;;;-0.27;93.69
84760;BME280;74983;51.084;11.086;2024-02-26T04:33:41;98551.94;;;-0.32;91.91
84760;BME280;74983;51.084;11.086;2024-02-26T04:36:12;98549.75;;;-0.39;93.26
84760;BME280;74983;51.084;11.086;2024-02-26T04:38:38;98544.34;;;-0.33;93.36
84760;BME280;74983;51.084;11.086;2024-02-26T04:41:03;98533.13;;;-0.31;92.52
84760;BME280;74983;51.084;11.086;2024-02-26T04:43:29;98533.78;;;-0.27;92.47
84760;BME280;74983;51.084;11.086;2024-02-26T04:45:54;98535.44;;;-0.26;93.72
84760;BME280;74983;51.084;11.086;2024-02-26T04:48:22;98541.75;;;-0.16;93.66
84760;BME280;74983;51.084;11.086;2024-02-26T04:50:48;98545.78;;;-0.12;93.60
84760;BME280;74983;51.084;11.086;2024-02-26T04:53:13;98540.44;;;-0.08;93.51
84760;BME280;74983;51.084;11.086;2024-02-26T04:55:38;98539.59;;;-0.08;91.98
84760;BME280;74983;51.084;11.086;2024-02-26T04:58:03;98537.72;;;-0.05;93.23
84760;BME280;74983;51.084;11.086;2024-02-26T05:00:29;98542.09;;;-0.07;92.57
84760;BME280;74983;51.084;11.086;2024-02-26T05:02:54;98547.88;;;-0.03;93.48
84760;BME280;74983;51.084;11.086;2024-02-26T05:05:19;98555.88;;;-0.09;93.19
84760;BME280;74983;51.084;11.086;2024-02-26T05:07:45;98553.22;;;-0.08;94.36
84760;BME280;74983;51.084;11.086;2024-02-26T05:10:10;98557.31;;;-0.04;95.11
84760;BME280;74983;51.084;11.086;2024-02-26T05:12:36;98558.13;;;0.13;94.96
84760;BME280;74983;51.084;11.086;2024-02-26T05:15:02;98555.19;;;0.20;94.50
84760;BME280;74983;51.084;11.086;2024-02-26T05:17:27;98556.59;;;0.26;93.92
84760;BME280;74983;51.084;11.086;2024-02-26T05:19:53;98549.00;;;0.24;93.05
84760;BME280;74983;51.084;11.086;2024-02-26T05:22:18;98552.97;;;0.30;93.31
84760;BME280;74983;51.084;11.086;2024-02-26T05:24:43;98547.25;;;0.25;94.10
84760;BME280;74983;51.084;11.086;2024-02-26T05:27:08;98545.44;;;0.27;94.74
84760;BME280;74983;51.084;11.086;2024-02-26T05:29:34;98543.38;;;0.33;95.00
84760;BME280;74983;51.084;11.086;2024-02-26T05:31:59;98549.16;;;0.37;94.35
84760;BME280;74983;51.084;11.086;2024-02-26T05:34:24;98549.09;;;0.38;93.06
84760;BME280;74983;51.084;11.086;2024-02-26T05:36:50;98550.31;;;0.47;93.09
84760;BME280;74983;51.084;11.086;2024-02-26T05:39:15;98555.28;;;0.34;93.57
84760;BME280;74983;51.084;11.086;2024-02-26T05:41:41;98564.28;;;0.26;94.01
84760;BME280;74983;51.084;11.086;2024-02-26T05:44:08;98569.88;;;0.32;94.19
84760;BME280;74983;51.084;11.086;2024-02-26T05:46:35;98573.44;;;0.30;94.08
84760;BME280;74983;51.084;11.086;2024-02-26T05:49:00;98574.34;;;0.29;93.66
84760;BME280;74983;51.084;11.086;2024-02-26T05:51:25;98571.38;;;0.21;93.93
84760;BME280;74983;51.084;11.086;2024-02-26T05:53:51;98583.16;;;0.23;94.09
84760;BME280;74983;51.084;11.086;2024-02-26T05:56:22;98577.47;;;0.34;93.63
84760;BME280;74983;51.084;11.086;2024-02-26T05:58:47;98580.31;;;0.45;94.17
84760;BME280;74983;51.084;11.086;2024-02-26T06:01:13;98582.69;;;0.48;94.49
84760;BME280;74983;51.084;11.086;2024-02-26T06:03:38;98580.47;;;0.57;94.25
84760;BME280;74983;51.084;11.086;2024-02-26T06:06:03;98575.19;;;0.76;93.77
84760;BME280;74983;51.084;11.086;2024-02-26T06:08:29;98579.72;;;0.86;92.87
84760;BME280;74983;51.084;11.086;2024-02-26T06:10:54;98573.28;;;0.79;93.46
84760;BME280;74983;51.084;11.086;2024-02-26T06:13:19;98575.16;;;0.91;93.00
84760;BME280;74983;51.084;11.086;2024-02-26T06:15:44;98586.56;;;0.86;92.61
84760;BME280;74983;51.084;11.086;2024-02-26T06:18:10;98586.34;;;0.75;92.83
84760;BME280;74983;51.084;11.086;2024-02-26T06:20:35;98587.81;;;0.79;94.71
84760;BME280;74983;51.084;11.086;2024-02-26T06:23:00;98585.31;;;0.93;94.63
84760;BME280;74983;51.084;11.086;2024-02-26T06:25:25;98588.88;;;1.06;94.31
84760;BME280;74983;51.084;11.086;2024-02-26T06:27:51;98587.34;;;1.17;93.39
84760;BME280;74983;51.084;11.086;2024-02-26T06:30:16;98600.06;;;1.19;92.94
84760;BME280;74983;51.084;11.086;2024-02-26T06:32:41;98597.50;;;1.19;92.86
84760;BME280;74983;51.084;11.086;2024-02-26T06:35:07;98602.53;;;1.21;93.06
84760;BME280;74983;51.084;11.086;2024-02-26T06:37:34;98616.56;;;1.15;94.01
84760;BME280;74983;51.084;11.086;2024-02-26T06:40:00;98621.53;;;1.02;93.56
84760;BME280;74983;51.084;11.086;2024-02-26T06:42:25;98611.44;;;0.99;94.05
84760;BME280;74983;51.084;11.086;2024-02-26T06:44:51;98618.03;;;1.03;93.74
84760;BME280;74983;51.084;11.086;2024-02-26T06:47:16;98619.19;;;1.13;93.43
84760;BME280;74983;51.084;11.086;2024-02-26T06:49:41;98621.16;;;1.24;92.98
84760;BME280;74983;51.084;11.086;2024-02-26T06:52:07;98630.41;;;1.27;93.23
84760;BME280;74983;51.084;11.086;2024-02-26T06:54:32;98630.41;;;1.27;92.74
84760;BME280;74983;51.084;11.086;2024-02-26T06:56:57;98643.16;;;1.28;92.69
84760;BME280;74983;51.084;11.086;2024-02-26T06:59:23;98638.84;;;1.29;92.55
84760;BME280;74983;51.084;11.086;2024-02-26T07:01:49;98641.50;;;1.27;92.70
84760;BME280;74983;51.084;11.086;2024-02-26T07:04:14;98631.38;;;1.40;92.93
84760;BME280;74983;51.084;11.086;2024-02-26T07:06:39;98626.00;;;1.44;93.09
84760;BME280;74983;51.084;11.086;2024-02-26T07:09:05;98637.38;;;1.54;93.13
84760;BME280;74983;51.084;11.086;2024-02-26T07:11:30;98629.06;;;1.65;93.96
84760;BME280;74983;51.084;11.086;2024-02-26T07:13:55;98632.84;;;1.73;93.12
84760;BME280;74983;51.084;11.086;2024-02-26T07:16:20;98633.41;;;1.78;93.56
84760;BME280;74983;51.084;11.086;2024-02-26T07:18:45;98630.31;;;1.87;93.68
84760;BME280;74983;51.084;11.086;2024-02-26T07:21:14;98634.19;;;1.94;93.09
84760;BME280;74983;51.084;11.086;2024-02-26T07:23:39;98641.53;;;2.00;92.49
84760;BME280;74983;51.084;11.086;2024-02-26T07:26:04;98640.91;;;2.11;91.53
84760;BME280;74983;51.084;11.086;2024-02-26T07:28:30;98642.53;;;2.12;91.86
84760;BME280;74983;51.084;11.086;2024-02-26T07:30:55;98636.78;;;2.22;92.51
84760;BME280;74983;51.084;11.086;2024-02-26T07:33:21;98639.06;;;2.27;92.57
84760;BME280;74983;51.084;11.086;2024-02-26T07:35:46;98649.88;;;2.32;93.08
84760;BME280;74983;51.084;11.086;2024-02-26T07:38:12;98651.66;;;2.46;93.27
84760;BME280;74983;51.084;11.086;2024-02-26T07:40:38;98652.72;;;2.56;92.97
84760;BME280;74983;51.084;11.086;2024-02-26T07:43:04;98662.00;;;2.30;92.39
84760;BME280;74983;51.084;11.086;2024-02-26T07:45:29;98669.31;;;2.22;93.29
84760;BME280;74983;51.084;11.086;2024-02-26T07:47:54;98666.56;;;2.25;94.28
84760;BME280;74983;51.084;11.086;2024-02-26T07:50:19;98658.88;;;2.25;94.32
84760;BME280;74983;51.084;11.086;2024-02-26T07:52:44;98652.84;;;2.40;94.19
84760;BME280;74983;51.084;11.086;2024-02-26T07:55:10;98657.41;;;2.63;94.20
84760;BME280;74983;51.084;11.086;2024-02-26T07:57:36;98661.41;;;2.81;93.30
84760;BME280;74983;51.084;11.086;2024-02-26T08:00:05;98663.69;;;3.00;93.40
84760;BME280;74983;51.084;11.086;2024-02-26T08:02:34;98670.09;;;3.07;92.54
84760;BME280;74983;51.084;11.086;2024-02-26T08:04:59;98682.69;;;3.11;92.85
84760;BME280;74983;51.084;11.086;2024-02-26T08:07:25;98686.31;;;3.21;92.07
84760;BME280;74983;51.084;11.086;2024-02-26T08:09:51;98681.16;;;3.21;92.88
84760;BME280;74983;51.084;11.086;2024-02-26T08:12:17;98687.06;;;3.23;91.69
84760;BME280;74983;51.084;11.086;2024-02-26T08:14:42;98678.22;;;3.27;92.83
84760;BME280;74983;51.084;11.086;2024-02-26T08:17:09;98682.63;;;3.25;92.04
84760;BME280;74983;51.084;11.086;2024-02-26T08:19:34;98681.81;;;3.25;91.91
84760;BME280;74983;51.084;11.086;2024-02-26T08:22:00;98681.53;;;3.29;91.84
84760;BME280;74983;51.084;11.086;2024-02-26T08:24:26;98689.03;;;3.32;92.57
84760;BME280;74983;51.084;11.086;2024-02-26T08:26:51;98685.84;;;3.56;91.89
84760;BME280;74983;51.084;11.086;2024-02-26T08:29:16;98678.56;;;3.62;90.75
84760;BME280;74983;51.084;11.086;2024-02-26T08:31:42;98681.41;;;3.58;92.40
84760;BME280;74983;51.084;11.086;2024-02-26T08:34:07;98688.25;;;3.71;91.70
84760;BME280;74983;51.084;11.086;2024-02-26T08:36:33;98687.63;;;3.68;91.38
84760;BME280;74983;51.084;11.086;2024-02-26T08:38:59;98686.59;;;3.70;91.56
84760;BME280;74983;51.084;11.086;2024-02-26T08:41:24;98678.28;;;3.79;90.64
84760;BME280;74983;51.084;11.086;2024-02-26T08:43:49;98678.28;;;3.79;91.19
84760;BME280;74983;51.084;11.086;2024-02-26T08:46:14;98681.59;;;3.81;91.40
84760;BME280;74983;51.084;11.086;2024-02-26T08:48:40;98674.69;;;3.82;90.17
84760;BME280;74983;51.084;11.086;2024-02-26T08:51:09;98676.22;;;3.84;89.57
84760;BME280;74983;51.084;11.086;2024-02-26T08:53:35;98667.59;;;3.85;90.02
84760;BME280;74983;51.084;11.086;2024-02-26T08:56:00;98676.97;;;3.99;89.80
84760;BME280;74983;51.084;11.086;2024-02-26T08:58:27;98670.69;;;4.03;90.16
84760;BME280;74983;51.084;11.086;2024-02-26T09:00:53;98662.19;;;4.15;89.16
84760;BME280;74983;51.084;11.086;2024-02-26T09:03:18;98668.56;;;4.09;89.62
84760;BME280;74983;51.084;11.086;2024-02-26T09:05:43;98672.25;;;4.18;89.87
84760;BME280;74983;51.084;11.086;2024-02-26T09:08:09;98666.06;;;4.33;89.26
84760;BME280;74983;51.084;11.086;2024-02-26T09:10:34;98668.88;;;4.30;88.82
84760;BME280;74983;51.084;11.086;2024-02-26T09:12:59;98659.56;;;4.52;88.64
84760;BME280;74983;51.084;11.086;2024-02-26T09:15:24;98661.09;;;4.55;88.04
84760;BME280;74983;51.084;11.086;2024-02-26T09:17:50;98673.91;;;4.56;88.89
84760;BME280;74983;51.084;11.086;2024-02-26T09:20:16;98676.56;;;4.80;88.44
84760;BME280;74983;51.084;11.086;2024-02-26T09:22:45;98675.53;;;4.83;87.11
84760;BME280;74983;51.084;11.086;2024-02-26T09:25:11;98675.09;;;4.89;86.54
84760;BME280;74983;51.084;11.086;2024-02-26T09:27:36;98671.28;;;4.82;86.50
84760;BME280;74983;51.084;11.086;2024-02-26T09:30:01;98668.47;;;4.85;86.79
84760;BME280;74983;51.084;11.086;2024-02-26T09:32:26;98663.53;;;4.94;86.31
84760;BME280;74983;51.084;11.086;2024-02-26T09:34:52;98664.03;;;4.87;87.00
84760;BME280;74983;51.084;11.086;2024-02-26T09:37:17;98670.09;;;5.11;86.44
84760;BME280;74983;51.084;11.086;2024-02-26T09:39:42;98670.19;;;5.09;86.51
84760;BME280;74983;51.084;11.086;2024-02-26T09:42:09;98675.03;;;5.14;85.35
84760;BME280;74983;51.084;11.086;2024-02-26T09:44:36;98678.22;;;5.17;85.02
84760;BME280;74983;51.084;11.086;2024-02-26T09:47:05;98675.78;;;5.03;85.21
84760;BME280;74983;51.084;11.086;2024-02-26T09:49:33;98682.81;;;5.25;84.25
84760;BME280;74983;51.084;11.086;2024-02-26T09:52:00;98679.22;;;5.27;84.86
84760;BME280;74983;51.084;11.086;2024-02-26T09:54:27;98676.97;;;5.23;84.53
84760;BME280;74983;51.084;11.086;2024-02-26T09:56:55;98684.97;;;5.31;84.37
84760;BME280;74983;51.084;11.086;2024-02-26T09:59:24;98679.03;;;5.65;83.28
84760;BME280;74983;51.084;11.086;2024-02-26T10:01:50;98680.69;;;5.66;82.97
84760;BME280;74983;51.084;11.086;2024-02-26T10:04:16;98682.91;;;5.83;83.05
84760;BME280;74983;51.084;11.086;2024-02-26T10:06:41;98678.47;;;5.85;82.28
84760;BME280;74983;51.084;11.086;2024-02-26T10:09:09;98683.69;;;6.07;81.16
84760;BME280;74983;51.084;11.086;2024-02-26T10:11:35;98688.13;;;6.05;80.77
84760;BME280;74983;51.084;11.086;2024-02-26T10:14:02;98688.72;;;6.09;81.39
84760;BME280;74983;51.084;11.086;2024-02-26T10:16:28;98684.31;;;6.22;80.45
84760;BME280;74983;51.084;11.086;2024-02-26T10:18:54;98683.63;;;6.42;79.75
84760;BME280;74983;51.084;11.086;2024-02-26T10:21:20;98671.91;;;6.71;79.25
84760;BME280;74983;51.084;11.086;2024-02-26T10:23:46;98683.88;;;6.39;80.22
84760;BME280;74983;51.084;11.086;2024-02-26T10:26:19;98672.00;;;6.47;79.37
84760;BME280;74983;51.084;11.086;2024-02-26T10:28:45;98680.50;;;6.60;79.44
84760;BME280;74983;51.084;11.086;2024-02-26T10:31:11;98684.47;;;6.98;78.42
84760;BME280;74983;51.084;11.086;2024-02-26T10:33:38;98687.97;;;7.19;76.46
84760;BME280;74983;51.084;11.086;2024-02-26T10:36:05;98689.75;;;7.07;77.94
84760;BME280;74983;51.084;11.086;2024-02-26T10:38:32;98700.13;;;6.52;79.00
84760;BME280;74983;51.084;11.086;2024-02-26T10:40:57;98709.88;;;6.48;79.85
84760;BME280;74983;51.084;11.086;2024-02-26T10:43:22;98712.66;;;6.34;81.00
84760;BME280;74983;51.084;11.086;2024-02-26T10:45:48;98705.41;;;6.61;80.17
84760;BME280;74983;51.084;11.086;2024-02-26T10:48:14;98704.34;;;6.86;79.54
84760;BME280;74983;51.084;11.086;2024-02-26T10:50:40;98706.84;;;6.65;80.09
84760;BME280;74983;51.084;11.086;2024-02-26T10:53:13;98699.44;;;6.83;79.37
84760;BME280;74983;51.084;11.086;2024-02-26T10:55:40;98700.72;;;6.55;79.88
84760;BME280;74983;51.084;11.086;2024-02-26T10:58:08;98689.06;;;6.61;80.06
84760;BME280;74983;51.084;11.086;2024-02-26T11:00:35;98702.47;;;6.99;78.72
84760;BME280;74983;51.084;11.086;2024-02-26T11:03:02;98699.50;;;7.26;77.54
84760;BME280;74983;51.084;11.086;2024-02-26T11:05:28;98707.19;;;7.16;78.31
84760;BME280;74983;51.084;11.086;2024-02-26T11:07:54;98710.47;;;7.18;77.75
84760;BME280;74983;51.084;11.086;2024-02-26T11:10:21;98701.78;;;6.97;78.53
84760;BME280;74983;51.084;11.086;2024-02-26T11:12:47;98712.38;;;6.83;79.13
84760;BME280;74983;51.084;11.086;2024-02-26T11:15:14;98715.19;;;6.91;79.26
84760;BME280;74983;51.084;11.086;2024-02-26T11:17:39;98709.41;;;6.99;79.41
84760;BME280;74983;51.084;11.086;2024-02-26T11:20:05;98711.63;;;7.25;78.50
84760;BME280;74983;51.084;11.086;2024-02-26T11:22:31;98714.47;;;7.11;78.89
84760;BME280;74983;51.084;11.086;2024-02-26T11:24:58;98705.63;;;7.14;78.43
84760;BME280;74983;51.084;11.086;2024-02-26T11:27:31;98705.56;;;7.58;76.69
84760;BME280;74983;51.084;11.086;2024-02-26T11:29:59;98707.56;;;7.54;77.56
84760;BME280;74983;51.084;11.086;2024-02-26T11:32:29;98706.94;;;7.62;77.43
84760;BME280;74983;51.084;11.086;2024-02-26T11:34:55;98714.31;;;7.24;77.31
84760;BME280;74983;51.084;11.086;2024-02-26T11:37:21;98709.25;;;7.22;78.56
84760;BME280;74983;51.084;11.086;2024-02-26T11:39:47;98706.41;;;7.36;77.88
84760;BME280;74983;51.084;11.086;2024-02-26T11:42:16;98709.84;;;7.26;78.23
84760;BME280;74983;51.084;11.086;2024-02-26T11:44:41;98714.75;;;7.51;76.92
84760;BME280;74983;51.084;11.086;2024-02-26T11:47:14;98710.75;;;7.36;78.29
84760;BME280;74983;51.084;11.086;2024-02-26T11:49:43;98712.00;;;7.63;77.58
84760;BME280;74983;51.084;11.086;2024-02-26T11:52:08;98716.38;;;7.63;77.04
84760;BME280;74983;51.084;11.086;2024-02-26T11:54:44;98714.13;;;7.58;76.80
84760;BME280;74983;51.084;11.086;2024-02-26T11:57:31;98724.00;;;7.64;76.79
84760;BME280;74983;51.084;11.086;2024-02-26T12:05:18;98725.53;;;7.98;76.04
84760;BME280;74983;51.084;11.086;2024-02-26T12:07:55;98728.50;;;7.94;75.50
84760;BME280;74983;51.084;11.086;2024-02-26T12:10:30;98727.31;;;7.98;74.81
84760;BME280;74983;51.084;11.086;2024-02-26T12:13:00;98739.59;;;7.85;76.46
84760;BME280;74983;51.084;11.086;2024-02-26T12:15:33;98739.13;;;7.91;76.42
84760;BME280;74983;51.084;11.086;2024-02-26T12:18:03;98737.53;;;7.79;76.23
84760;BME280;74983;51.084;11.086;2024-02-26T12:20:29;98733.31;;;7.67;76.51
84760;BME280;74983;51.084;11.086;2024-02-26T12:22:55;98727.34;;;7.87;76.82
84760;BME280;74983;51.084;11.086;2024-02-26T12:25:24;98725.94;;;7.83;76.92
84760;BME280;74983;51.084;11.086;2024-02-26T12:27:50;98720.66;;;7.84;77.10
84760;BME280;74983;51.084;11.086;2024-02-26T12:30:16;98709.22;;;7.87;77.21
84760;BME280;74983;51.084;11.086;2024-02-26T12:32:41;98705.38;;;8.02;76.99
84760;BME280;74983;51.084;11.086;2024-02-26T12:35:07;98704.69;;;7.68;77.48
84760;BME280;74983;51.084;11.086;2024-02-26T12:37:32;98707.50;;;7.65;78.21
84760;BME280;74983;51.084;11.086;2024-02-26T12:39:57;98716.50;;;7.50;78.50
84760;BME280;74983;51.084;11.086;2024-02-26T12:42:23;98720.38;;;7.56;78.64
84760;BME280;74983;51.084;11.086;2024-02-26T12:44:49;98719.53;;;7.66;77.35
84760;BME280;74983;51.084;11.086;2024-02-26T12:47:15;98721.88;;;7.69;77.30
84760;BME280;74983;51.084;11.086;2024-02-26T12:49:42;98722.75;;;7.90;77.95
84760;BME280;74983;51.084;11.086;2024-02-26T12:52:09;98728.97;;;7.88;76.96
84760;BME280;74983;51.084;11.086;2024-02-26T12:54:34;98723.44;;;7.92;76.74
84760;BME280;74983;51.084;11.086;2024-02-26T12:57:04;98741.00;;;8.21;77.52